KGAD/GAD METAR and TAF weather

Enter ICAO airport designator
Station Type Date Time Source
KGAD METAR 2022/06/29 00:26 UTC NOAA

KGAD 290026Z AUTO 04008KT 10SM OVC075 23/22 A3014 RMK AO2 LTG DSNT SW TSB05E20 $


Station Type Date Time Source
KGAD Decoded METAR 2022/06/29 00:26 UTC NOAA

Gadsden, Gadsden Municipal Airport, AL, United States (KGAD) 33-58N 086-05W
Jun 28, 2022 - 08:26 PM EDT / 2022.06.29 0026 UTC
Wind: from the NE (040 degrees) at 9 MPH (8 KT):0
Visibility: 10 mile(s):0
Sky conditions: overcast
Weather: Lightning observed
Temperature: 73 F (23 C)
Dew Point: 71 F (22 C)
Relative Humidity: 94%
Pressure (altimeter): 30.14 in. Hg (1020 hPa)
ob: KGAD 290026Z AUTO 04008KT 10SM OVC075 23/22 A3014 RMK AO2 LTG DSNT SW TSB05E20
cycle: 0

Station Type Date Time Source
KGAD TAF UTC NOAA

Error!

Example: see airport list